sensor_id;sensor_type;location;lat;lon;timestamp;P1;durP1;ratioP1;P2;durP2;ratioP2
37527;SDS011;23372;52.050;4.810;2022-09-09T00:32:43;5.55;;;3.22;;
37527;SDS011;23372;52.050;4.810;2022-09-09T00:37:35;6.28;;;3.53;;
37527;SDS011;23372;52.050;4.810;2022-09-09T00:40:02;4.75;;;3.65;;
37527;SDS011;23372;52.050;4.810;2022-09-09T00:43:35;5.72;;;3.20;;
37527;SDS011;23372;52.050;4.810;2022-09-09T00:46:05;5.80;;;3.70;;
37527;SDS011;23372;52.050;4.810;2022-09-09T01:05:36;7.70;;;3.65;;
37527;SDS011;23372;52.050;4.810;2022-09-09T01:08:19;6.03;;;3.75;;
37527;SDS011;23372;52.050;4.810;2022-09-09T01:11:01;7.05;;;4.28;;
37527;SDS011;23372;52.050;4.810;2022-09-09T01:13:28;10.25;;;4.32;;
37527;SDS011;23372;52.050;4.810;2022-09-09T01:16:00;5.43;;;3.97;;
37527;SDS011;23372;52.050;4.810;2022-09-09T01:18:29;9.65;;;4.22;;
37527;SDS011;23372;52.050;4.810;2022-09-09T01:26:36;8.02;;;4.63;;
37527;SDS011;23372;52.050;4.810;2022-09-09T01:29:09;8.82;;;5.10;;
37527;SDS011;23372;52.050;4.810;2022-09-09T01:31:38;10.90;;;5.15;;
37527;SDS011;23372;52.050;4.810;2022-09-09T01:34:16;8.32;;;4.65;;
37527;SDS011;23372;52.050;4.810;2022-09-09T01:39:32;8.65;;;4.35;;
37527;SDS011;23372;52.050;4.810;2022-09-09T01:42:00;9.43;;;4.40;;
37527;SDS011;23372;52.050;4.810;2022-09-09T01:44:27;7.20;;;4.68;;
37527;SDS011;23372;52.050;4.810;2022-09-09T01:46:54;6.15;;;4.13;;
37527;SDS011;23372;52.050;4.810;2022-09-09T01:49:19;8.77;;;4.47;;
37527;SDS011;23372;52.050;4.810;2022-09-09T01:51:46;7.22;;;4.55;;
37527;SDS011;23372;52.050;4.810;2022-09-09T01:54:15;9.68;;;4.50;;
37527;SDS011;23372;52.050;4.810;2022-09-09T01:59:33;10.38;;;4.70;;
37527;SDS011;23372;52.050;4.810;2022-09-09T02:02:13;10.52;;;4.78;;
37527;SDS011;23372;52.050;4.810;2022-09-09T02:04:45;9.35;;;5.28;;
37527;SDS011;23372;52.050;4.810;2022-09-09T02:07:34;8.80;;;4.95;;
37527;SDS011;23372;52.050;4.810;2022-09-09T02:10:19;7.05;;;4.30;;
37527;SDS011;23372;52.050;4.810;2022-09-09T02:12:52;7.43;;;4.70;;
37527;SDS011;23372;52.050;4.810;2022-09-09T02:15:34;9.23;;;5.15;;
37527;SDS011;23372;52.050;4.810;2022-09-09T02:18:42;11.50;;;5.10;;
37527;SDS011;23372;52.050;4.810;2022-09-09T02:21:18;10.05;;;4.70;;
37527;SDS011;23372;52.050;4.810;2022-09-09T02:23:44;9.45;;;5.13;;
37527;SDS011;23372;52.050;4.810;2022-09-09T02:26:14;9.43;;;5.05;;
37527;SDS011;23372;52.050;4.810;2022-09-09T02:28:45;8.07;;;5.35;;
37527;SDS011;23372;52.050;4.810;2022-09-09T02:31:12;7.93;;;4.60;;
37527;SDS011;23372;52.050;4.810;2022-09-09T02:33:42;9.07;;;5.80;;
37527;SDS011;23372;52.050;4.810;2022-09-09T02:36:12;8.85;;;5.78;;
37527;SDS011;23372;52.050;4.810;2022-09-09T02:38:42;8.57;;;5.00;;
37527;SDS011;23372;52.050;4.810;2022-09-09T02:41:15;9.93;;;5.90;;
37527;SDS011;23372;52.050;4.810;2022-09-09T02:43:46;12.00;;;5.68;;
37527;SDS011;23372;52.050;4.810;2022-09-09T02:46:32;10.20;;;5.63;;
37527;SDS011;23372;52.050;4.810;2022-09-09T02:49:07;11.18;;;5.38;;
37527;SDS011;23372;52.050;4.810;2022-09-09T02:54:20;11.73;;;5.53;;
37527;SDS011;23372;52.050;4.810;2022-09-09T02:56:52;9.68;;;5.68;;
37527;SDS011;23372;52.050;4.810;2022-09-09T02:59:21;9.88;;;5.32;;
37527;SDS011;23372;52.050;4.810;2022-09-09T03:01:47;6.63;;;4.50;;
37527;SDS011;23372;52.050;4.810;2022-09-09T03:04:13;9.75;;;4.78;;
37527;SDS011;23372;52.050;4.810;2022-09-09T03:06:38;8.93;;;5.05;;
37527;SDS011;23372;52.050;4.810;2022-09-09T03:09:04;9.10;;;4.90;;
37527;SDS011;23372;52.050;4.810;2022-09-09T03:11:30;7.28;;;4.70;;
37527;SDS011;23372;52.050;4.810;2022-09-09T03:13:56;8.10;;;5.00;;
37527;SDS011;23372;52.050;4.810;2022-09-09T03:16:22;9.93;;;5.72;;
37527;SDS011;23372;52.050;4.810;2022-09-09T03:18:48;13.18;;;5.93;;
37527;SDS011;23372;52.050;4.810;2022-09-09T03:21:14;9.63;;;6.32;;
37527;SDS011;23372;52.050;4.810;2022-09-09T03:23:39;20.67;;;6.07;;
37527;SDS011;23372;52.050;4.810;2022-09-09T03:26:05;10.27;;;6.00;;
37527;SDS011;23372;52.050;4.810;2022-09-09T03:28:31;13.63;;;6.57;;
37527;SDS011;23372;52.050;4.810;2022-09-09T03:31:00;11.52;;;6.00;;
37527;SDS011;23372;52.050;4.810;2022-09-09T03:33:26;9.55;;;6.70;;
37527;SDS011;23372;52.050;4.810;2022-09-09T03:35:53;12.55;;;6.80;;
37527;SDS011;23372;52.050;4.810;2022-09-09T03:38:21;8.90;;;5.88;;
37527;SDS011;23372;52.050;4.810;2022-09-09T03:40:53;11.27;;;7.20;;
37527;SDS011;23372;52.050;4.810;2022-09-09T03:43:24;12.63;;;6.05;;
37527;SDS011;23372;52.050;4.810;2022-09-09T03:45:51;13.55;;;6.65;;
37527;SDS011;23372;52.050;4.810;2022-09-09T03:48:17;11.88;;;6.80;;
37527;SDS011;23372;52.050;4.810;2022-09-09T03:50:47;7.82;;;6.25;;
37527;SDS011;23372;52.050;4.810;2022-09-09T03:53:14;9.73;;;6.05;;
37527;SDS011;23372;52.050;4.810;2022-09-09T03:55:44;9.15;;;5.82;;
37527;SDS011;23372;52.050;4.810;2022-09-09T03:58:11;13.80;;;6.57;;
37527;SDS011;23372;52.050;4.810;2022-09-09T04:00:38;10.75;;;6.25;;
37527;SDS011;23372;52.050;4.810;2022-09-09T04:03:07;8.48;;;5.50;;
37527;SDS011;23372;52.050;4.810;2022-09-09T04:05:33;11.25;;;5.85;;
37527;SDS011;23372;52.050;4.810;2022-09-09T04:07:59;9.73;;;5.72;;
37527;SDS011;23372;52.050;4.810;2022-09-09T04:10:25;12.73;;;5.85;;
37527;SDS011;23372;52.050;4.810;2022-09-09T04:12:51;8.63;;;5.50;;
37527;SDS011;23372;52.050;4.810;2022-09-09T04:15:17;9.60;;;5.80;;
37527;SDS011;23372;52.050;4.810;2022-09-09T04:17:43;10.05;;;5.38;;
37527;SDS011;23372;52.050;4.810;2022-09-09T04:20:09;12.33;;;6.17;;
37527;SDS011;23372;52.050;4.810;2022-09-09T04:22:37;9.77;;;5.13;;
37527;SDS011;23372;52.050;4.810;2022-09-09T04:25:04;9.30;;;5.43;;
37527;SDS011;23372;52.050;4.810;2022-09-09T04:27:30;10.67;;;5.60;;
37527;SDS011;23372;52.050;4.810;2022-09-09T04:29:57;8.73;;;4.68;;
37527;SDS011;23372;52.050;4.810;2022-09-09T04:32:22;10.65;;;4.97;;
37527;SDS011;23372;52.050;4.810;2022-09-09T04:34:48;10.85;;;5.38;;
37527;SDS011;23372;52.050;4.810;2022-09-09T04:37:14;7.38;;;5.30;;
37527;SDS011;23372;52.050;4.810;2022-09-09T04:39:39;9.73;;;4.40;;
37527;SDS011;23372;52.050;4.810;2022-09-09T04:42:05;11.23;;;4.93;;
37527;SDS011;23372;52.050;4.810;2022-09-09T04:44:30;7.20;;;4.68;;
37527;SDS011;23372;52.050;4.810;2022-09-09T04:46:56;9.40;;;4.57;;
37527;SDS011;23372;52.050;4.810;2022-09-09T04:49:21;7.30;;;4.60;;
37527;SDS011;23372;52.050;4.810;2022-09-09T04:51:48;9.52;;;4.80;;
37527;SDS011;23372;52.050;4.810;2022-09-09T04:54:14;8.73;;;4.28;;
37527;SDS011;23372;52.050;4.810;2022-09-09T04:56:40;10.73;;;4.28;;
37527;SDS011;23372;52.050;4.810;2022-09-09T04:59:07;8.82;;;4.60;;
37527;SDS011;23372;52.050;4.810;2022-09-09T05:01:32;9.20;;;3.88;;
37527;SDS011;23372;52.050;4.810;2022-09-09T05:03:58;7.40;;;3.78;;
37527;SDS011;23372;52.050;4.810;2022-09-09T05:06:24;6.00;;;3.85;;
37527;SDS011;23372;52.050;4.810;2022-09-09T05:08:50;8.25;;;4.20;;
37527;SDS011;23372;52.050;4.810;2022-09-09T05:11:22;5.68;;;3.28;;
37527;SDS011;23372;52.050;4.810;2022-09-09T05:13:53;13.32;;;4.15;;
37527;SDS011;23372;52.050;4.810;2022-09-09T05:16:19;11.00;;;4.05;;
37527;SDS011;23372;52.050;4.810;2022-09-09T05:18:45;6.95;;;3.70;;
37527;SDS011;23372;52.050;4.810;2022-09-09T05:21:12;12.88;;;4.25;;
37527;SDS011;23372;52.050;4.810;2022-09-09T05:23:39;10.67;;;3.90;;
37527;SDS011;23372;52.050;4.810;2022-09-09T05:26:05;9.10;;;3.83;;
37527;SDS011;23372;52.050;4.810;2022-09-09T05:28:33;8.25;;;3.97;;
37527;SDS011;23372;52.050;4.810;2022-09-09T05:31:02;8.50;;;3.53;;
37527;SDS011;23372;52.050;4.810;2022-09-09T05:33:29;12.98;;;3.90;;
37527;SDS011;23372;52.050;4.810;2022-09-09T05:35:59;12.60;;;4.18;;
37527;SDS011;23372;52.050;4.810;2022-09-09T05:38:28;9.80;;;3.95;;
37527;SDS011;23372;52.050;4.810;2022-09-09T05:40:53;12.35;;;3.80;;
37527;SDS011;23372;52.050;4.810;2022-09-09T05:43:20;10.23;;;4.15;;
37527;SDS011;23372;52.050;4.810;2022-09-09T05:45:47;10.57;;;4.13;;
37527;SDS011;23372;52.050;4.810;2022-09-09T05:48:13;11.90;;;5.35;;
37527;SDS011;23372;52.050;4.810;2022-09-09T05:50:42;8.48;;;4.28;;
37527;SDS011;23372;52.050;4.810;2022-09-09T05:53:10;9.32;;;4.05;;
37527;SDS011;23372;52.050;4.810;2022-09-09T05:55:35;8.60;;;4.22;;
37527;SDS011;23372;52.050;4.810;2022-09-09T05:58:01;11.95;;;3.92;;
37527;SDS011;23372;52.050;4.810;2022-09-09T06:00:27;11.32;;;3.78;;
37527;SDS011;23372;52.050;4.810;2022-09-09T06:02:56;12.48;;;4.10;;
37527;SDS011;23372;52.050;4.810;2022-09-09T06:05:22;14.57;;;5.00;;
37527;SDS011;23372;52.050;4.810;2022-09-09T06:07:51;14.43;;;3.83;;
37527;SDS011;23372;52.050;4.810;2022-09-09T06:10:17;11.00;;;4.22;;
37527;SDS011;23372;52.050;4.810;2022-09-09T06:12:44;17.33;;;4.03;;
37527;SDS011;23372;52.050;4.810;2022-09-09T06:15:09;14.75;;;5.43;;
37527;SDS011;23372;52.050;4.810;2022-09-09T06:17:35;19.13;;;5.38;;
37527;SDS011;23372;52.050;4.810;2022-09-09T06:20:01;12.05;;;4.10;;
37527;SDS011;23372;52.050;4.810;2022-09-09T06:22:27;8.13;;;3.75;;
37527;SDS011;23372;52.050;4.810;2022-09-09T06:24:53;11.98;;;3.42;;
37527;SDS011;23372;52.050;4.810;2022-09-09T06:27:18;11.05;;;3.80;;
37527;SDS011;23372;52.050;4.810;2022-09-09T06:29:44;11.50;;;3.35;;
37527;SDS011;23372;52.050;4.810;2022-09-09T06:32:09;11.93;;;3.90;;
37527;SDS011;23372;52.050;4.810;2022-09-09T06:34:35;14.93;;;3.85;;
37527;SDS011;23372;52.050;4.810;2022-09-09T06:37:01;9.63;;;3.40;;
37527;SDS011;23372;52.050;4.810;2022-09-09T06:39:27;10.82;;;3.70;;
37527;SDS011;23372;52.050;4.810;2022-09-09T06:41:53;9.63;;;3.58;;
37527;SDS011;23372;52.050;4.810;2022-09-09T06:44:18;9.60;;;3.83;;
37527;SDS011;23372;52.050;4.810;2022-09-09T06:46:44;12.55;;;4.07;;
37527;SDS011;23372;52.050;4.810;2022-09-09T06:49:12;9.25;;;3.25;;
37527;SDS011;23372;52.050;4.810;2022-09-09T06:51:38;17.23;;;3.83;;
37527;SDS011;23372;52.050;4.810;2022-09-09T06:54:11;10.52;;;4.07;;
37527;SDS011;23372;52.050;4.810;2022-09-09T06:56:38;12.25;;;4.88;;
37527;SDS011;23372;52.050;4.810;2022-09-09T06:59:08;8.00;;;3.83;;
37527;SDS011;23372;52.050;4.810;2022-09-09T07:01:36;13.75;;;4.40;;
37527;SDS011;23372;52.050;4.810;2022-09-09T07:04:03;15.32;;;5.20;;
37527;SDS011;23372;52.050;4.810;2022-09-09T07:06:33;11.93;;;3.80;;
37527;SDS011;23372;52.050;4.810;2022-09-09T07:09:01;11.00;;;4.38;;
37527;SDS011;23372;52.050;4.810;2022-09-09T07:11:30;10.63;;;4.32;;
37527;SDS011;23372;52.050;4.810;2022-09-09T07:13:58;16.05;;;4.60;;
37527;SDS011;23372;52.050;4.810;2022-09-09T07:16:24;8.90;;;3.92;;
37527;SDS011;23372;52.050;4.810;2022-09-09T07:18:52;11.90;;;4.18;;
37527;SDS011;23372;52.050;4.810;2022-09-09T07:21:22;12.23;;;4.72;;
37527;SDS011;23372;52.050;4.810;2022-09-09T07:23:49;10.90;;;4.38;;
37527;SDS011;23372;52.050;4.810;2022-09-09T07:26:16;14.25;;;4.90;;
37527;SDS011;23372;52.050;4.810;2022-09-09T07:28:44;14.23;;;5.70;;
37527;SDS011;23372;52.050;4.810;2022-09-09T07:31:13;11.52;;;4.68;;
37527;SDS011;23372;52.050;4.810;2022-09-09T07:33:41;8.52;;;4.18;;
37527;SDS011;23372;52.050;4.810;2022-09-09T07:36:09;13.60;;;5.22;;
37527;SDS011;23372;52.050;4.810;2022-09-09T07:38:38;14.38;;;5.05;;
37527;SDS011;23372;52.050;4.810;2022-09-09T07:41:05;10.88;;;4.82;;
37527;SDS011;23372;52.050;4.810;2022-09-09T07:43:37;12.50;;;5.53;;
37527;SDS011;23372;52.050;4.810;2022-09-09T07:46:04;16.63;;;4.88;;
37527;SDS011;23372;52.050;4.810;2022-09-09T07:48:31;16.13;;;4.72;;
37527;SDS011;23372;52.050;4.810;2022-09-09T07:51:31;11.40;;;5.43;;
37527;SDS011;23372;52.050;4.810;2022-09-09T07:53:59;12.23;;;5.38;;
37527;SDS011;23372;52.050;4.810;2022-09-09T07:56:27;14.00;;;4.40;;
37527;SDS011;23372;52.050;4.810;2022-09-09T07:58:53;12.90;;;4.45;;
37527;SDS011;23372;52.050;4.810;2022-09-09T08:03:54;13.50;;;4.80;;
37527;SDS011;23372;52.050;4.810;2022-09-09T08:06:24;11.23;;;5.03;;
37527;SDS011;23372;52.050;4.810;2022-09-09T08:08:51;15.50;;;5.57;;
37527;SDS011;23372;52.050;4.810;2022-09-09T08:11:17;12.32;;;4.80;;
37527;SDS011;23372;52.050;4.810;2022-09-09T08:13:43;13.25;;;5.25;;
37527;SDS011;23372;52.050;4.810;2022-09-09T08:16:11;14.85;;;5.28;;
37527;SDS011;23372;52.050;4.810;2022-09-09T08:18:38;10.20;;;5.53;;
37527;SDS011;23372;52.050;4.810;2022-09-09T08:21:14;14.18;;;4.90;;
37527;SDS011;23372;52.050;4.810;2022-09-09T08:23:43;15.93;;;5.25;;
37527;SDS011;23372;52.050;4.810;2022-09-09T08:26:14;15.55;;;5.35;;
37527;SDS011;23372;52.050;4.810;2022-09-09T08:28:42;8.32;;;4.78;;
37527;SDS011;23372;52.050;4.810;2022-09-09T08:31:22;9.13;;;5.35;;
37527;SDS011;23372;52.050;4.810;2022-09-09T08:33:50;15.60;;;4.90;;
37527;SDS011;23372;52.050;4.810;2022-09-09T08:36:17;13.88;;;5.05;;
37527;SDS011;23372;52.050;4.810;2022-09-09T08:38:47;16.55;;;5.72;;
37527;SDS011;23372;52.050;4.810;2022-09-09T08:43:58;13.75;;;4.90;;
37527;SDS011;23372;52.050;4.810;2022-09-09T08:46:32;11.85;;;4.78;;
37527;SDS011;23372;52.050;4.810;2022-09-09T08:49:15;18.63;;;4.03;;
37527;SDS011;23372;52.050;4.810;2022-09-09T08:51:50;11.18;;;4.40;;
37527;SDS011;23372;52.050;4.810;2022-09-09T08:54:20;19.75;;;4.57;;
37527;SDS011;23372;52.050;4.810;2022-09-09T08:56:46;8.35;;;3.85;;
37527;SDS011;23372;52.050;4.810;2022-09-09T08:59:13;7.38;;;3.65;;
37527;SDS011;23372;52.050;4.810;2022-09-09T09:10:13;14.00;;;4.05;;
37527;SDS011;23372;52.050;4.810;2022-09-09T09:12:50;8.65;;;3.88;;
37527;SDS011;23372;52.050;4.810;2022-09-09T09:15:18;8.05;;;3.83;;
37527;SDS011;23372;52.050;4.810;2022-09-09T09:17:47;11.52;;;4.60;;
37527;SDS011;23372;52.050;4.810;2022-09-09T09:20:14;12.88;;;4.53;;
37527;SDS011;23372;52.050;4.810;2022-09-09T09:22:48;13.77;;;4.47;;
37527;SDS011;23372;52.050;4.810;2022-09-09T09:25:21;12.93;;;5.03;;
37527;SDS011;23372;52.050;4.810;2022-09-09T09:30:36;15.88;;;4.75;;
37527;SDS011;23372;52.050;4.810;2022-09-09T09:33:10;9.50;;;3.30;;
37527;SDS011;23372;52.050;4.810;2022-09-09T09:35:52;9.73;;;3.65;;
37527;SDS011;23372;52.050;4.810;2022-09-09T09:40:52;11.27;;;3.65;;
37527;SDS011;23372;52.050;4.810;2022-09-09T09:45:56;8.55;;;3.22;;
37527;SDS011;23372;52.050;4.810;2022-09-09T09:48:26;10.00;;;3.53;;
37527;SDS011;23372;52.050;4.810;2022-09-09T09:53:28;14.90;;;4.90;;
37527;SDS011;23372;52.050;4.810;2022-09-09T09:56:00;10.07;;;4.43;;
37527;SDS011;23372;52.050;4.810;2022-09-09T09:58:32;13.15;;;4.55;;
37527;SDS011;23372;52.050;4.810;2022-09-09T10:01:03;10.85;;;4.63;;
37527;SDS011;23372;52.050;4.810;2022-09-09T10:03:31;13.43;;;4.28;;
37527;SDS011;23372;52.050;4.810;2022-09-09T10:06:02;6.93;;;3.92;;
37527;SDS011;23372;52.050;4.810;2022-09-09T10:08:28;16.75;;;4.50;;
37527;SDS011;23372;52.050;4.810;2022-09-09T10:11:03;10.55;;;4.30;;
37527;SDS011;23372;52.050;4.810;2022-09-09T10:13:50;11.05;;;4.97;;
37527;SDS011;23372;52.050;4.810;2022-09-09T10:19:13;14.23;;;4.72;;
37527;SDS011;23372;52.050;4.810;2022-09-09T10:21:48;13.60;;;3.53;;
37527;SDS011;23372;52.050;4.810;2022-09-09T10:24:22;9.25;;;3.78;;
37527;SDS011;23372;52.050;4.810;2022-09-09T10:32:56;10.05;;;4.05;;
37527;SDS011;23372;52.050;4.810;2022-09-09T10:35:40;9.60;;;3.95;;
37527;SDS011;23372;52.050;4.810;2022-09-09T10:38:40;12.90;;;3.85;;
37527;SDS011;23372;52.050;4.810;2022-09-09T10:55:06;12.45;;;4.05;;
37527;SDS011;23372;52.050;4.810;2022-09-09T10:57:42;10.63;;;3.65;;
37527;SDS011;23372;52.050;4.810;2022-09-09T11:02:42;10.10;;;3.47;;
37527;SDS011;23372;52.050;4.810;2022-09-09T11:05:22;6.10;;;3.38;;
37527;SDS011;23372;52.050;4.810;2022-09-09T11:08:08;12.27;;;3.60;;
37527;SDS011;23372;52.050;4.810;2022-09-09T11:11:00;10.07;;;3.20;;
37527;SDS011;23372;52.050;4.810;2022-09-09T11:13:57;7.30;;;3.00;;
37527;SDS011;23372;52.050;4.810;2022-09-09T11:16:36;7.90;;;2.85;;
37527;SDS011;23372;52.050;4.810;2022-09-09T11:19:21;6.82;;;2.70;;
37527;SDS011;23372;52.050;4.810;2022-09-09T11:21:59;6.68;;;3.28;;
37527;SDS011;23372;52.050;4.810;2022-09-09T11:24:45;8.25;;;4.43;;
37527;SDS011;23372;52.050;4.810;2022-09-09T11:27:21;5.80;;;2.95;;
37527;SDS011;23372;52.050;4.810;2022-09-09T11:38:52;7.18;;;3.55;;
37527;SDS011;23372;52.050;4.810;2022-09-09T11:41:32;9.05;;;3.63;;
37527;SDS011;23372;52.050;4.810;2022-09-09T11:43:59;9.02;;;3.20;;
37527;SDS011;23372;52.050;4.810;2022-09-09T11:46:32;6.72;;;3.33;;
37527;SDS011;23372;52.050;4.810;2022-09-09T11:49:02;7.75;;;3.10;;
37527;SDS011;23372;52.050;4.810;2022-09-09T11:51:30;9.38;;;3.30;;
37527;SDS011;23372;52.050;4.810;2022-09-09T11:59:22;7.90;;;3.38;;
37527;SDS011;23372;52.050;4.810;2022-09-09T12:01:58;9.85;;;3.92;;
37527;SDS011;23372;52.050;4.810;2022-09-09T12:04:37;8.27;;;4.00;;
37527;SDS011;23372;52.050;4.810;2022-09-09T12:09:43;6.60;;;5.00;;
37527;SDS011;23372;52.050;4.810;2022-09-09T12:17:25;8.80;;;5.07;;
37527;SDS011;23372;52.050;4.810;2022-09-09T12:28:18;11.75;;;4.57;;
37527;SDS011;23372;52.050;4.810;2022-09-09T12:30:56;9.80;;;4.68;;
37527;SDS011;23372;52.050;4.810;2022-09-09T12:33:35;9.13;;;4.82;;
37527;SDS011;23372;52.050;4.810;2022-09-09T12:36:04;6.65;;;4.50;;
37527;SDS011;23372;52.050;4.810;2022-09-09T12:38:38;9.32;;;4.60;;
37527;SDS011;23372;52.050;4.810;2022-09-09T12:41:05;10.10;;;5.05;;
37527;SDS011;23372;52.050;4.810;2022-09-09T12:43:31;11.50;;;5.15;;
37527;SDS011;23372;52.050;4.810;2022-09-09T12:46:00;8.25;;;5.10;;
37527;SDS011;23372;52.050;4.810;2022-09-09T12:48:34;8.90;;;5.10;;
37527;SDS011;23372;52.050;4.810;2022-09-09T12:51:05;8.70;;;5.25;;
37527;SDS011;23372;52.050;4.810;2022-09-09T12:53:40;9.55;;;4.97;;
37527;SDS011;23372;52.050;4.810;2022-09-09T12:56:07;8.80;;;5.38;;
37527;SDS011;23372;52.050;4.810;2022-09-09T12:58:44;7.35;;;4.88;;
37527;SDS011;23372;52.050;4.810;2022-09-09T13:01:23;11.48;;;5.10;;
37527;SDS011;23372;52.050;4.810;2022-09-09T13:03:53;10.10;;;5.88;;
37527;SDS011;23372;52.050;4.810;2022-09-09T13:06:20;8.30;;;4.47;;
37527;SDS011;23372;52.050;4.810;2022-09-09T13:08:54;10.57;;;4.90;;
37527;SDS011;23372;52.050;4.810;2022-09-09T13:11:29;8.13;;;4.57;;
37527;SDS011;23372;52.050;4.810;2022-09-09T13:14:01;9.57;;;5.43;;
37527;SDS011;23372;52.050;4.810;2022-09-09T13:16:31;8.70;;;4.80;;
37527;SDS011;23372;52.050;4.810;2022-09-09T13:18:59;9.43;;;4.80;;
37527;SDS011;23372;52.050;4.810;2022-09-09T13:21:37;9.35;;;4.85;;
37527;SDS011;23372;52.050;4.810;2022-09-09T13:24:05;9.40;;;5.07;;
37527;SDS011;23372;52.050;4.810;2022-09-09T13:26:33;12.38;;;4.55;;
37527;SDS011;23372;52.050;4.810;2022-09-09T13:29:18;9.55;;;5.07;;
37527;SDS011;23372;52.050;4.810;2022-09-09T13:31:44;8.60;;;4.43;;
37527;SDS011;23372;52.050;4.810;2022-09-09T13:34:22;12.05;;;4.65;;
37527;SDS011;23372;52.050;4.810;2022-09-09T13:36:53;6.95;;;4.40;;
37527;SDS011;23372;52.050;4.810;2022-09-09T13:39:32;9.27;;;4.57;;
37527;SDS011;23372;52.050;4.810;2022-09-09T13:42:00;18.38;;;5.65;;
37527;SDS011;23372;52.050;4.810;2022-09-09T13:44:35;9.30;;;4.60;;
37527;SDS011;23372;52.050;4.810;2022-09-09T13:47:05;12.10;;;4.75;;
37527;SDS011;23372;52.050;4.810;2022-09-09T13:49:42;8.50;;;4.63;;
37527;SDS011;23372;52.050;4.810;2022-09-09T13:52:15;4.72;;;3.90;;
37527;SDS011;23372;52.050;4.810;2022-09-09T13:54:42;9.88;;;4.30;;
37527;SDS011;23372;52.050;4.810;2022-09-09T13:57:18;7.75;;;4.05;;
37527;SDS011;23372;52.050;4.810;2022-09-09T13:59:46;7.55;;;4.35;;
37527;SDS011;23372;52.050;4.810;2022-09-09T14:02:12;6.05;;;3.35;;
37527;SDS011;23372;52.050;4.810;2022-09-09T14:04:39;6.47;;;3.00;;
37527;SDS011;23372;52.050;4.810;2022-09-09T14:07:08;6.25;;;2.92;;
37527;SDS011;23372;52.050;4.810;2022-09-09T14:09:38;6.57;;;2.63;;
37527;SDS011;23372;52.050;4.810;2022-09-09T14:12:05;8.63;;;2.40;;
37527;SDS011;23372;52.050;4.810;2022-09-09T14:14:33;4.55;;;1.98;;
37527;SDS011;23372;52.050;4.810;2022-09-09T14:16:59;7.20;;;2.92;;
37527;SDS011;23372;52.050;4.810;2022-09-09T14:19:25;3.85;;;2.10;;
37527;SDS011;23372;52.050;4.810;2022-09-09T14:21:51;8.00;;;1.77;;
37527;SDS011;23372;52.050;4.810;2022-09-09T14:24:16;5.57;;;1.63;;
37527;SDS011;23372;52.050;4.810;2022-09-09T14:26:42;6.97;;;1.75;;
37527;SDS011;23372;52.050;4.810;2022-09-09T14:29:08;3.63;;;1.55;;
37527;SDS011;23372;52.050;4.810;2022-09-09T14:31:33;3.58;;;1.33;;
37527;SDS011;23372;52.050;4.810;2022-09-09T14:33:59;5.32;;;1.73;;
37527;SDS011;23372;52.050;4.810;2022-09-09T14:36:25;3.03;;;1.77;;
37527;SDS011;23372;52.050;4.810;2022-09-09T14:38:50;7.20;;;1.80;;
37527;SDS011;23372;52.050;4.810;2022-09-09T14:41:17;5.65;;;2.20;;
37527;SDS011;23372;52.050;4.810;2022-09-09T14:43:44;3.65;;;2.25;;
37527;SDS011;23372;52.050;4.810;2022-09-09T14:46:11;7.72;;;2.58;;
37527;SDS011;23372;52.050;4.810;2022-09-09T14:48:39;4.32;;;2.58;;
37527;SDS011;23372;52.050;4.810;2022-09-09T14:51:09;5.85;;;2.30;;
37527;SDS011;23372;52.050;4.810;2022-09-09T14:53:37;6.35;;;2.65;;
37527;SDS011;23372;52.050;4.810;2022-09-09T14:56:04;5.13;;;2.88;;
37527;SDS011;23372;52.050;4.810;2022-09-09T14:58:31;6.32;;;3.03;;
37527;SDS011;23372;52.050;4.810;2022-09-09T15:01:02;5.55;;;3.03;;
37527;SDS011;23372;52.050;4.810;2022-09-09T15:03:29;8.65;;;3.30;;
37527;SDS011;23372;52.050;4.810;2022-09-09T15:05:54;4.68;;;2.90;;
37527;SDS011;23372;52.050;4.810;2022-09-09T15:08:20;8.05;;;3.20;;
37527;SDS011;23372;52.050;4.810;2022-09-09T15:10:45;5.30;;;2.97;;
37527;SDS011;23372;52.050;4.810;2022-09-09T15:13:12;7.38;;;2.92;;
37527;SDS011;23372;52.050;4.810;2022-09-09T15:15:39;8.02;;;3.15;;
37527;SDS011;23372;52.050;4.810;2022-09-09T15:18:06;10.30;;;2.90;;
37527;SDS011;23372;52.050;4.810;2022-09-09T15:20:31;5.30;;;2.30;;
37527;SDS011;23372;52.050;4.810;2022-09-09T15:22:57;5.13;;;2.22;;
37527;SDS011;23372;52.050;4.810;2022-09-09T15:25:22;4.78;;;2.03;;
37527;SDS011;23372;52.050;4.810;2022-09-09T15:27:48;4.97;;;2.30;;
37527;SDS011;23372;52.050;4.810;2022-09-09T15:30:14;3.83;;;1.80;;
37527;SDS011;23372;52.050;4.810;2022-09-09T15:32:40;4.35;;;1.88;;
37527;SDS011;23372;52.050;4.810;2022-09-09T15:35:05;7.15;;;1.88;;
37527;SDS011;23372;52.050;4.810;2022-09-09T15:37:31;6.28;;;2.13;;
37527;SDS011;23372;52.050;4.810;2022-09-09T15:39:57;7.72;;;1.70;;
37527;SDS011;23372;52.050;4.810;2022-09-09T15:42:24;4.72;;;1.63;;
37527;SDS011;23372;52.050;4.810;2022-09-09T15:44:50;5.00;;;1.65;;
37527;SDS011;23372;52.050;4.810;2022-09-09T15:47:15;6.85;;;1.50;;
37527;SDS011;23372;52.050;4.810;2022-09-09T15:49:41;5.13;;;1.70;;
37527;SDS011;23372;52.050;4.810;2022-09-09T15:52:08;6.43;;;1.85;;
37527;SDS011;23372;52.050;4.810;2022-09-09T15:54:36;6.18;;;1.92;;
37527;SDS011;23372;52.050;4.810;2022-09-09T15:57:04;8.00;;;2.05;;
37527;SDS011;23372;52.050;4.810;2022-09-09T15:59:31;4.45;;;2.03;;
37527;SDS011;23372;52.050;4.810;2022-09-09T16:01:58;8.02;;;2.58;;
37527;SDS011;23372;52.050;4.810;2022-09-09T16:04:25;6.20;;;1.88;;
37527;SDS011;23372;52.050;4.810;2022-09-09T16:06:51;4.38;;;2.10;;
37527;SDS011;23372;52.050;4.810;2022-09-09T16:09:23;8.50;;;2.95;;
37527;SDS011;23372;52.050;4.810;2022-09-09T16:11:49;9.43;;;2.33;;
37527;SDS011;23372;52.050;4.810;2022-09-09T16:14:15;9.77;;;2.90;;
37527;SDS011;23372;52.050;4.810;2022-09-09T16:16:41;9.57;;;3.08;;
37527;SDS011;23372;52.050;4.810;2022-09-09T16:19:08;10.82;;;3.70;;
37527;SDS011;23372;52.050;4.810;2022-09-09T16:21:37;7.97;;;3.60;;
37527;SDS011;23372;52.050;4.810;2022-09-09T16:24:05;7.05;;;3.50;;
37527;SDS011;23372;52.050;4.810;2022-09-09T16:26:32;10.43;;;3.92;;
37527;SDS011;23372;52.050;4.810;2022-09-09T16:28:59;10.40;;;3.78;;
37527;SDS011;23372;52.050;4.810;2022-09-09T16:31:26;8.13;;;3.45;;
37527;SDS011;23372;52.050;4.810;2022-09-09T16:33:53;12.32;;;3.88;;
37527;SDS011;23372;52.050;4.810;2022-09-09T16:36:25;10.05;;;4.65;;
37527;SDS011;23372;52.050;4.810;2022-09-09T16:38:53;10.77;;;5.47;;
37527;SDS011;23372;52.050;4.810;2022-09-09T16:41:20;7.90;;;4.85;;
37527;SDS011;23372;52.050;4.810;2022-09-09T16:43:46;14.30;;;6.82;;
37527;SDS011;23372;52.050;4.810;2022-09-09T16:48:41;15.45;;;6.53;;
37527;SDS011;23372;52.050;4.810;2022-09-09T16:51:09;10.45;;;5.50;;
37527;SDS011;23372;52.050;4.810;2022-09-09T16:53:39;7.55;;;5.75;;
37527;SDS011;23372;52.050;4.810;2022-09-09T16:56:07;10.13;;;6.78;;
37527;SDS011;23372;52.050;4.810;2022-09-09T16:58:34;10.98;;;6.30;;
37527;SDS011;23372;52.050;4.810;2022-09-09T17:01:01;9.90;;;6.00;;
37527;SDS011;23372;52.050;4.810;2022-09-09T17:03:28;15.98;;;6.43;;
37527;SDS011;23372;52.050;4.810;2022-09-09T17:05:54;10.65;;;6.18;;
37527;SDS011;23372;52.050;4.810;2022-09-09T17:08:19;8.20;;;5.75;;
37527;SDS011;23372;52.050;4.810;2022-09-09T17:10:45;11.10;;;5.55;;
37527;SDS011;23372;52.050;4.810;2022-09-09T17:13:12;11.95;;;6.15;;
37527;SDS011;23372;52.050;4.810;2022-09-09T17:15:39;8.80;;;5.63;;
37527;SDS011;23372;52.050;4.810;2022-09-09T17:18:07;17.35;;;6.53;;
37527;SDS011;23372;52.050;4.810;2022-09-09T17:20:38;12.77;;;5.45;;
37527;SDS011;23372;52.050;4.810;2022-09-09T17:23:04;15.15;;;5.97;;
37527;SDS011;23372;52.050;4.810;2022-09-09T17:25:31;10.65;;;5.70;;